Terminal Aerodrome Forecast
Issued by NWS

Home | Current Version | Previous Version | Text Only | Print | Product List | Glossary On
Versions: 1 2 3 4 5 6 7 8 9 10 11 12
000
FTUS42 TJSJ 050500 RRA
TAFJPS
TAF
TJPS 050539Z 0506/0606 06005KT P6SM FEW030
     FM051500 11015KT P6SM FEW030 SCT060
     FM052330 09012KT P6SM FEW030=

USA.gov is the U.S. government's official web portal to all federal, state and local government web resources and services.